createdAt,value
2023-04-29T00:02:14.456Z,8.80
2023-04-29T00:04:41.232Z,9.57
2023-04-29T00:07:08.935Z,12.20
2023-04-29T00:09:36.275Z,10.13
2023-04-29T00:12:02.745Z,9.43
2023-04-29T00:14:29.152Z,8.60
2023-04-29T00:16:55.558Z,9.83
2023-04-29T00:19:22.048Z,9.17
2023-04-29T00:21:48.870Z,8.37
2023-04-29T00:24:15.556Z,9.17
2023-04-29T00:26:42.149Z,7.60
2023-04-29T00:29:08.513Z,8.57
2023-04-29T00:31:35.195Z,13.17
2023-04-29T00:34:01.710Z,7.57
2023-04-29T00:36:28.319Z,8.10
2023-04-29T00:38:56.229Z,7.90
2023-04-29T00:41:23.234Z,10.17
2023-04-29T00:43:49.696Z,10.87
2023-04-29T00:46:16.222Z,9.63
2023-04-29T00:48:42.660Z,9.33
2023-04-29T00:51:09.298Z,12.20
2023-04-29T00:53:35.840Z,9.50
2023-04-29T00:56:02.919Z,9.50
2023-04-29T00:58:35.181Z,11.37
2023-04-29T01:01:04.002Z,9.00
2023-04-29T01:03:32.020Z,10.03
2023-04-29T01:06:21.090Z,9.17
2023-04-29T01:08:56.799Z,9.23
2023-04-29T01:11:27.967Z,10.67
2023-04-29T01:14:00.729Z,11.43
2023-04-29T01:16:51.907Z,9.70
2023-04-29T01:19:48.069Z,9.73
2023-04-29T01:22:14.775Z,10.63
2023-04-29T01:24:41.135Z,10.97
2023-04-29T01:27:13.737Z,10.90
2023-04-29T01:29:53.672Z,12.90
2023-04-29T01:32:37.313Z,12.13
2023-04-29T01:35:09.724Z,13.30
2023-04-29T01:37:45.597Z,14.57
2023-04-29T01:40:37.711Z,15.33
2023-04-29T01:43:08.111Z,15.87
2023-04-29T01:45:36.471Z,15.60
2023-04-29T01:48:04.743Z,16.00
2023-04-29T01:50:31.354Z,18.53
2023-04-29T01:52:58.506Z,19.33
2023-04-29T01:55:25.683Z,19.03
2023-04-29T01:57:52.205Z,20.87
2023-04-29T02:00:18.726Z,21.13
2023-04-29T02:02:45.177Z,25.03
2023-04-29T02:05:11.644Z,25.20
2023-04-29T02:07:38.195Z,28.20
2023-04-29T02:10:04.879Z,25.53
2023-04-29T02:12:31.292Z,27.03
2023-04-29T02:14:57.785Z,27.50
2023-04-29T02:17:24.208Z,29.53
2023-04-29T02:19:50.868Z,33.30
2023-04-29T02:22:17.398Z,36.93
2023-04-29T02:24:43.761Z,35.80
2023-04-29T02:27:10.184Z,37.57
2023-04-29T02:29:37.188Z,41.37
2023-04-29T02:32:03.711Z,45.50
2023-04-29T02:34:31.221Z,40.63
2023-04-29T02:36:57.890Z,39.03
2023-04-29T02:39:24.736Z,41.80
2023-04-29T02:41:54.608Z,41.57
2023-04-29T02:44:21.627Z,38.93
2023-04-29T02:46:48.004Z,39.00
2023-04-29T02:49:14.315Z,43.27
2023-04-29T02:51:41.474Z,40.73
2023-04-29T02:54:07.941Z,38.93
2023-04-29T02:56:34.310Z,47.67
2023-04-29T02:59:00.838Z,45.50
2023-04-29T03:01:27.259Z,44.50
2023-04-29T03:03:54.733Z,46.70
2023-04-29T03:06:21.542Z,50.23
2023-04-29T03:08:47.850Z,47.23
2023-04-29T03:11:14.224Z,48.20
2023-04-29T03:13:40.706Z,46.27
2023-04-29T03:16:07.313Z,50.77
2023-04-29T03:18:33.726Z,53.10
2023-04-29T03:21:00.187Z,57.23
2023-04-29T03:23:26.843Z,53.40
2023-04-29T03:25:55.634Z,53.27
2023-04-29T03:28:22.284Z,54.43
2023-04-29T03:30:48.611Z,55.17
2023-04-29T03:33:14.962Z,54.10
2023-04-29T03:35:41.324Z,61.30
2023-04-29T03:38:07.674Z,54.30
2023-04-29T03:40:34.076Z,56.80
2023-04-29T03:43:01.167Z,56.07
2023-04-29T03:45:27.511Z,57.40
2023-04-29T03:47:54.732Z,61.20
2023-04-29T03:50:21.458Z,68.47
2023-04-29T03:52:47.838Z,62.67
2023-04-29T03:55:14.263Z,53.00
2023-04-29T03:57:42.432Z,56.10
2023-04-29T04:00:09.616Z,53.13
2023-04-29T04:02:36.219Z,59.57
2023-04-29T04:05:03.061Z,52.63
2023-04-29T04:07:29.443Z,58.50
2023-04-29T04:09:55.833Z,59.10
2023-04-29T04:12:22.311Z,49.07
2023-04-29T04:14:48.668Z,61.87
2023-04-29T04:17:15.036Z,57.10
2023-04-29T04:19:41.542Z,53.17
2023-04-29T04:22:08.128Z,53.30
2023-04-29T04:24:34.504Z,56.80
2023-04-29T04:27:01.750Z,53.73
2023-04-29T04:29:28.106Z,57.40
2023-04-29T04:31:54.734Z,57.20
2023-04-29T04:34:21.280Z,56.27
2023-04-29T04:36:47.629Z,52.73
2023-04-29T04:39:14.048Z,52.57
2023-04-29T04:41:40.468Z,54.97
2023-04-29T04:44:07.094Z,46.67
2023-04-29T04:46:33.443Z,56.10
2023-04-29T04:48:59.883Z,53.60
2023-04-29T04:51:28.633Z,50.93
2023-04-29T04:53:55.059Z,44.03
2023-04-29T04:56:22.073Z,46.90
2023-04-29T04:58:48.450Z,41.23
2023-04-29T05:01:14.917Z,46.30
2023-04-29T05:03:41.572Z,43.30
2023-04-29T05:06:08.152Z,51.97
2023-04-29T05:08:34.502Z,41.27
2023-04-29T05:11:00.997Z,43.23
2023-04-29T05:13:27.432Z,44.83
2023-04-29T05:15:53.835Z,39.93
2023-04-29T05:18:20.805Z,38.83
2023-04-29T05:20:47.198Z,39.47
2023-04-29T05:23:13.518Z,36.90
2023-04-29T05:25:40.332Z,37.67
2023-04-29T05:28:07.240Z,34.47
2023-04-29T05:30:33.625Z,34.07
2023-04-29T05:33:00.261Z,35.90
2023-04-29T05:35:26.855Z,33.67
2023-04-29T05:37:53.206Z,34.23
2023-04-29T05:40:19.589Z,38.77
2023-04-29T05:42:47.019Z,32.67
2023-04-29T05:45:13.449Z,30.40
2023-04-29T05:47:40.049Z,35.37
2023-04-29T05:50:07.042Z,29.47
2023-04-29T05:52:33.412Z,35.57
2023-04-29T05:54:59.778Z,28.47
2023-04-29T05:57:26.112Z,26.77
2023-04-29T05:59:55.150Z,26.77
2023-04-29T06:02:21.885Z,24.00
2023-04-29T06:04:48.669Z,22.83
2023-04-29T06:07:15.475Z,22.53
2023-04-29T06:09:42.889Z,23.17
2023-04-29T06:12:09.436Z,19.67
2023-04-29T06:14:35.837Z,23.13
2023-04-29T06:17:02.475Z,20.00
2023-04-29T06:19:28.785Z,20.07
2023-04-29T06:21:55.202Z,23.57
2023-04-29T06:24:21.611Z,21.90
2023-04-29T06:26:48.746Z,20.30
2023-04-29T06:29:15.275Z,21.30
2023-04-29T06:31:41.857Z,21.07
2023-04-29T06:34:08.332Z,19.60
2023-04-29T06:36:34.700Z,21.57
2023-04-29T06:39:01.148Z,18.70
2023-04-29T06:41:27.817Z,19.77
2023-04-29T06:43:54.129Z,19.63
2023-04-29T06:46:20.615Z,20.77
2023-04-29T06:48:46.971Z,17.47
2023-04-29T06:51:13.308Z,19.23
2023-04-29T06:53:39.686Z,19.83
2023-04-29T06:56:06.822Z,20.90
2023-04-29T06:58:33.215Z,19.77
2023-04-29T07:00:59.762Z,23.03
2023-04-29T07:03:26.421Z,24.00
2023-04-29T07:05:52.805Z,27.97
2023-04-29T07:08:19.203Z,23.37
2023-04-29T07:10:53.952Z,24.80
2023-04-29T07:13:20.442Z,22.70
2023-04-29T07:15:46.874Z,26.77
2023-04-29T07:18:13.305Z,23.90
2023-04-29T07:20:39.750Z,24.47
2023-04-29T07:23:06.173Z,22.33
2023-04-29T07:25:33.079Z,27.93
2023-04-29T07:28:00.437Z,24.60
2023-04-29T07:30:26.799Z,24.57
2023-04-29T07:32:53.185Z,25.13
2023-04-29T07:35:19.775Z,23.73
2023-04-29T07:37:46.339Z,23.33
2023-04-29T07:40:13.423Z,28.17
2023-04-29T07:42:39.840Z,22.47
2023-04-29T07:45:06.920Z,25.97
2023-04-29T07:47:33.274Z,24.87
2023-04-29T07:49:59.981Z,27.17
2023-04-29T07:52:26.678Z,29.97
2023-04-29T07:54:55.681Z,23.83
2023-04-29T07:57:22.684Z,25.27
2023-04-29T07:59:53.583Z,26.83
2023-04-29T08:02:20.645Z,27.20
2023-04-29T08:04:47.386Z,25.37
2023-04-29T08:07:14.489Z,24.23
2023-04-29T08:09:40.855Z,26.33
2023-04-29T08:12:07.359Z,22.63
2023-04-29T08:14:33.830Z,27.77
2023-04-29T08:17:00.178Z,25.33
2023-04-29T08:19:26.591Z,24.47
2023-04-29T08:21:53.217Z,24.77
2023-04-29T08:24:20.837Z,25.10
2023-04-29T08:26:47.557Z,23.13
2023-04-29T08:29:13.971Z,26.57
2023-04-29T08:31:41.124Z,22.60
2023-04-29T08:34:07.598Z,23.17
2023-04-29T08:36:34.107Z,21.77
2023-04-29T08:39:00.545Z,19.47
2023-04-29T08:41:27.161Z,20.07
2023-04-29T08:43:53.572Z,19.67
2023-04-29T08:46:20.884Z,20.47
2023-04-29T08:48:48.381Z,18.87
2023-04-29T08:51:15.085Z,18.80
2023-04-29T08:53:41.669Z,17.30
2023-04-29T08:56:13.308Z,20.13
2023-04-29T08:58:40.874Z,18.03
2023-04-29T09:01:11.110Z,16.20
2023-04-29T09:04:09.396Z,15.37
2023-04-29T09:06:35.842Z,20.43
2023-04-29T09:09:03.743Z,17.37
2023-04-29T09:11:30.449Z,19.17
2023-04-29T09:14:00.726Z,20.60
2023-04-29T09:16:28.165Z,18.70
2023-04-29T09:18:55.237Z,19.87
2023-04-29T09:21:24.098Z,19.37
2023-04-29T09:23:58.924Z,18.90
2023-04-29T09:26:26.115Z,24.30
2023-04-29T09:29:18.333Z,21.57
2023-04-29T09:31:45.992Z,24.87
2023-04-29T09:34:13.053Z,21.27
2023-04-29T09:36:45.798Z,22.03
2023-04-29T09:39:16.456Z,23.23
2023-04-29T09:41:52.233Z,19.43
2023-04-29T09:44:27.320Z,20.67
2023-04-29T09:46:57.499Z,21.23
2023-04-29T09:49:32.707Z,25.70
2023-04-29T09:52:01.928Z,23.27
2023-04-29T09:54:30.477Z,28.23
2023-04-29T09:56:59.203Z,27.33
2023-04-29T09:59:26.504Z,25.70
2023-04-29T10:01:54.691Z,22.80
2023-04-29T10:04:27.406Z,24.27
2023-04-29T10:06:55.593Z,23.57
2023-04-29T10:09:23.538Z,22.27
2023-04-29T10:11:54.150Z,24.30
2023-04-29T10:14:27.382Z,28.87
2023-04-29T10:17:09.577Z,25.33
2023-04-29T10:19:43.621Z,31.83
2023-04-29T10:22:14.470Z,26.83
2023-04-29T10:24:43.042Z,32.53
2023-04-29T10:27:12.608Z,28.57
2023-04-29T10:29:40.290Z,32.13
2023-04-29T10:32:12.503Z,34.13
2023-04-29T10:34:41.810Z,34.90
2023-04-29T10:37:09.932Z,34.63
2023-04-29T10:39:52.883Z,36.20
2023-04-29T10:42:36.441Z,36.93
2023-04-29T10:45:19.922Z,39.73
2023-04-29T10:48:13.247Z,39.30
2023-04-29T10:50:46.889Z,44.63
2023-04-29T10:53:19.250Z,44.73
2023-04-29T10:55:59.618Z,43.67
2023-04-29T10:58:55.503Z,47.63
2023-04-29T11:01:41.420Z,51.27
2023-04-29T11:04:09.689Z,48.20
2023-04-29T11:06:35.994Z,50.13
2023-04-29T11:09:19.843Z,49.03
2023-04-29T11:11:55.141Z,55.97
2023-04-29T11:14:25.178Z,51.33
2023-04-29T11:16:53.838Z,61.20
2023-04-29T11:19:20.719Z,61.00
2023-04-29T11:21:47.642Z,58.87
2023-04-29T11:24:16.151Z,57.53
2023-04-29T11:26:43.588Z,61.33
2023-04-29T11:29:12.854Z,60.57
2023-04-29T11:31:39.715Z,61.77
2023-04-29T11:34:07.247Z,59.07
2023-04-29T11:36:34.476Z,52.83
2023-04-29T11:39:03.632Z,54.13
2023-04-29T11:41:31.529Z,54.17
2023-04-29T11:43:59.798Z,45.33
2023-04-29T11:46:28.179Z,46.17
2023-04-29T11:48:54.587Z,40.27
2023-04-29T11:51:22.435Z,38.03
2023-04-29T11:53:48.996Z,32.00
2023-04-29T11:56:15.655Z,33.03
2023-04-29T11:58:43.135Z,32.83
2023-04-29T12:01:09.715Z,30.03
2023-04-29T12:03:36.652Z,30.43
2023-04-29T12:06:03.493Z,32.13
2023-04-29T12:08:30.590Z,30.87
2023-04-29T12:10:59.049Z,28.57
2023-04-29T12:13:28.435Z,30.93
2023-04-29T12:15:56.502Z,33.83
2023-04-29T12:18:23.409Z,31.27
2023-04-29T12:20:55.842Z,31.50
2023-04-29T12:23:24.127Z,31.50
2023-04-29T12:25:52.114Z,30.60
2023-04-29T12:28:19.245Z,33.63
2023-04-29T12:30:50.427Z,32.33
2023-04-29T12:33:21.940Z,35.13
2023-04-29T12:35:50.164Z,32.77
2023-04-29T12:38:20.674Z,32.67
2023-04-29T12:40:47.193Z,32.20
2023-04-29T12:43:13.653Z,32.10
2023-04-29T12:45:40.519Z,30.10
2023-04-29T12:48:10.039Z,31.93
2023-04-29T12:50:49.699Z,31.50
2023-04-29T12:53:16.272Z,31.30
2023-04-29T12:55:42.649Z,31.70
2023-04-29T12:58:09.582Z,34.27
2023-04-29T13:00:37.748Z,36.27
2023-04-29T13:03:04.408Z,31.47
2023-04-29T13:05:31.113Z,34.77
2023-04-29T13:07:57.526Z,35.27
2023-04-29T13:10:24.057Z,30.80
2023-04-29T13:12:50.625Z,33.00
2023-04-29T13:15:16.935Z,30.10
2023-04-29T13:17:43.322Z,30.97
2023-04-29T13:20:11.817Z,32.87
2023-04-29T13:22:38.319Z,33.87
2023-04-29T13:25:05.373Z,28.37
2023-04-29T13:27:32.134Z,27.80
2023-04-29T13:29:58.599Z,26.23
2023-04-29T13:32:25.248Z,29.50
2023-04-29T13:34:51.992Z,27.07
2023-04-29T13:37:19.779Z,27.30
2023-04-29T13:39:47.978Z,29.43
2023-04-29T13:42:15.408Z,28.60
2023-04-29T13:44:52.781Z,27.90
2023-04-29T13:47:25.704Z,26.40
2023-04-29T13:55:18.414Z,23.60
2023-04-29T14:00:25.173Z,25.47
2023-04-29T14:05:25.721Z,23.17
2023-04-29T14:07:52.296Z,26.00
2023-04-29T14:10:18.927Z,25.10
2023-04-29T14:12:45.608Z,26.47
2023-04-29T14:15:12.157Z,24.23
2023-04-29T14:17:38.631Z,23.07
2023-04-29T14:20:05.655Z,22.43
2023-04-29T14:22:32.257Z,23.60
2023-04-29T14:24:58.801Z,24.57
2023-04-29T14:27:25.115Z,23.30
2023-04-29T14:29:51.441Z,20.27
2023-04-29T14:32:17.762Z,26.57
2023-04-29T14:34:44.151Z,25.80
2023-04-29T14:37:10.834Z,20.97
2023-04-29T14:39:38.404Z,21.53
2023-04-29T14:42:05.291Z,24.17
2023-04-29T14:44:31.807Z,19.33
2023-04-29T14:46:58.186Z,20.80
2023-04-29T14:49:24.527Z,20.80
2023-04-29T14:51:51.253Z,20.23
2023-04-29T14:54:17.799Z,18.80
2023-04-29T14:56:44.194Z,20.33
2023-04-29T14:59:11.139Z,18.90
2023-04-29T15:01:39.584Z,19.87
2023-04-29T15:04:06.264Z,19.33
2023-04-29T15:06:32.973Z,17.97
2023-04-29T15:08:59.403Z,16.87
2023-04-29T15:11:26.054Z,18.03
2023-04-29T15:13:52.418Z,17.07
2023-04-29T15:16:19.333Z,19.33
2023-04-29T15:18:46.422Z,17.67
2023-04-29T15:21:12.965Z,17.37
2023-04-29T15:23:39.518Z,19.07
2023-04-29T15:26:06.983Z,16.73
2023-04-29T15:28:33.509Z,15.80
2023-04-29T15:31:01.719Z,17.30
2023-04-29T15:33:28.071Z,15.83
2023-04-29T15:35:56.272Z,15.57
2023-04-29T15:38:22.734Z,15.07
2023-04-29T15:40:49.094Z,15.77
2023-04-29T15:43:15.526Z,15.40
2023-04-29T15:45:42.672Z,15.77
2023-04-29T15:48:09.119Z,15.27
2023-04-29T15:50:35.629Z,18.53
2023-04-29T15:53:02.834Z,15.13
2023-04-29T15:55:29.215Z,16.37
2023-04-29T15:57:55.878Z,13.87
2023-04-29T16:00:22.280Z,13.90
2023-04-29T16:02:48.684Z,15.20
2023-04-29T16:05:15.279Z,13.87
2023-04-29T16:07:41.646Z,14.97
2023-04-29T16:10:08.211Z,13.93
2023-04-29T16:12:34.600Z,14.43
2023-04-29T16:15:01.006Z,15.47
2023-04-29T16:17:27.500Z,15.27
2023-04-29T16:19:54.376Z,15.23
2023-04-29T16:22:21.090Z,15.13
2023-04-29T16:24:49.365Z,15.30
2023-04-29T16:27:17.492Z,14.20
2023-04-29T16:29:43.905Z,17.03
2023-04-29T16:32:10.241Z,19.03
2023-04-29T16:34:37.519Z,20.73
2023-04-29T16:37:03.930Z,21.33
2023-04-29T16:39:30.333Z,22.17
2023-04-29T16:41:56.731Z,22.80
2023-04-29T16:44:23.086Z,24.13
2023-04-29T16:46:49.441Z,21.80
2023-04-29T16:49:21.554Z,22.20
2023-04-29T16:51:48.797Z,20.83
2023-04-29T16:54:15.116Z,20.67
2023-04-29T16:56:41.563Z,19.77
2023-04-29T16:59:08.349Z,19.83
2023-04-29T17:01:34.807Z,20.77
2023-04-29T17:04:01.552Z,20.03
2023-04-29T17:06:28.017Z,19.23
2023-04-29T17:08:54.410Z,20.50
2023-04-29T17:11:20.856Z,19.80
2023-04-29T17:13:47.239Z,18.67
2023-04-29T17:16:16.180Z,19.57
2023-04-29T17:18:43.053Z,18.90
2023-04-29T17:21:09.382Z,23.47
2023-04-29T17:23:35.990Z,19.60
2023-04-29T17:26:04.244Z,18.83
2023-04-29T17:28:30.758Z,19.20
2023-04-29T17:31:00.057Z,19.17
2023-04-29T17:33:34.566Z,22.60
2023-04-29T17:36:01.821Z,24.77
2023-04-29T17:38:29.356Z,19.57
2023-04-29T17:40:56.240Z,19.33
2023-04-29T17:43:22.629Z,18.87
2023-04-29T17:45:49.120Z,18.47
2023-04-29T17:48:18.464Z,18.60
2023-04-29T17:50:46.001Z,18.50
2023-04-29T17:53:12.905Z,17.47
2023-04-29T17:55:40.163Z,20.57
2023-04-29T17:58:07.093Z,17.93
2023-04-29T18:00:35.105Z,19.47
2023-04-29T18:03:02.835Z,22.93
2023-04-29T18:05:29.395Z,19.90
2023-04-29T18:07:55.714Z,19.00
2023-04-29T18:10:22.414Z,18.70
2023-04-29T18:12:48.723Z,18.00
2023-04-29T18:15:16.445Z,17.63
2023-04-29T18:17:43.767Z,18.27
2023-04-29T18:20:11.649Z,18.47
2023-04-29T18:22:37.953Z,18.70
2023-04-29T18:25:04.794Z,18.27
2023-04-29T18:27:31.193Z,18.33
2023-04-29T18:29:57.483Z,20.70
2023-04-29T18:32:23.986Z,18.30
2023-04-29T18:34:50.374Z,19.17
2023-04-29T18:37:16.770Z,17.57
2023-04-29T18:39:43.110Z,17.80
2023-04-29T18:42:09.467Z,20.53
2023-04-29T18:44:36.014Z,18.43
2023-04-29T18:47:02.579Z,18.53
2023-04-29T18:49:30.261Z,20.30
2023-04-29T18:51:56.853Z,21.20
2023-04-29T18:54:23.229Z,18.13
2023-04-29T18:56:49.982Z,18.47
2023-04-29T18:59:19.650Z,17.30
2023-04-29T19:01:47.222Z,17.27
2023-04-29T19:04:14.041Z,18.93
2023-04-29T19:06:40.790Z,19.67
2023-04-29T19:09:07.420Z,19.70
2023-04-29T19:11:33.879Z,21.73
2023-04-29T19:14:00.263Z,18.97
2023-04-29T19:16:26.825Z,19.33
2023-04-29T19:18:53.315Z,19.47
2023-04-29T19:21:20.161Z,18.77
2023-04-29T19:23:46.982Z,19.57
2023-04-29T19:26:13.420Z,20.67
2023-04-29T19:28:39.782Z,18.20
2023-04-29T19:31:06.433Z,18.53
2023-04-29T19:33:32.923Z,20.00
2023-04-29T19:35:59.360Z,21.20
2023-04-29T19:38:26.080Z,18.60
2023-04-29T19:40:56.525Z,21.77
2023-04-29T19:43:23.361Z,18.70
2023-04-29T19:45:50.369Z,18.03
2023-04-29T19:48:17.245Z,20.43
2023-04-29T19:50:43.706Z,19.97
2023-04-29T19:53:11.387Z,20.23
2023-04-29T19:55:39.637Z,20.17
2023-04-29T19:58:06.490Z,18.00
2023-04-29T20:00:33.515Z,19.23
2023-04-29T20:03:00.007Z,17.90
2023-04-29T20:05:26.490Z,18.00
2023-04-29T20:07:52.905Z,18.30
2023-04-29T20:10:19.237Z,18.77
2023-04-29T20:12:46.580Z,19.20
2023-04-29T20:15:13.073Z,20.23
2023-04-29T20:17:39.446Z,20.00
2023-04-29T20:20:08.981Z,18.93
2023-04-29T20:22:35.650Z,18.80
2023-04-29T20:25:02.717Z,21.63
2023-04-29T20:27:29.180Z,20.90
2023-04-29T20:29:55.930Z,20.60
2023-04-29T20:32:22.589Z,20.40
2023-04-29T20:34:49.190Z,20.60
2023-04-29T20:37:15.775Z,23.07
2023-04-29T20:39:43.472Z,19.97
2023-04-29T20:42:09.962Z,21.77
2023-04-29T20:44:38.390Z,21.63
2023-04-29T20:47:05.725Z,22.17
2023-04-29T20:49:32.651Z,21.40
2023-04-29T20:51:59.797Z,21.40
2023-04-29T20:54:26.354Z,20.63
2023-04-29T20:56:52.806Z,21.57
2023-04-29T20:59:19.159Z,21.90
2023-04-29T21:01:46.293Z,21.83
2023-04-29T21:04:12.904Z,21.00
2023-04-29T21:06:39.397Z,22.77
2023-04-29T21:09:05.920Z,21.57
2023-04-29T21:11:32.358Z,20.93
2023-04-29T21:13:58.962Z,22.33
2023-04-29T21:16:25.707Z,22.40
2023-04-29T21:18:52.410Z,23.00
2023-04-29T21:21:18.851Z,20.67
2023-04-29T21:23:45.318Z,21.40
2023-04-29T21:26:14.752Z,22.63
2023-04-29T21:28:41.605Z,21.07
2023-04-29T21:31:09.589Z,22.07
2023-04-29T21:33:35.976Z,22.13
2023-04-29T21:36:02.342Z,21.47
2023-04-29T21:38:28.769Z,20.87
2023-04-29T21:40:59.349Z,21.67
2023-04-29T21:43:27.621Z,20.27
2023-04-29T21:45:54.702Z,21.20
2023-04-29T21:48:21.861Z,21.90
2023-04-29T21:50:48.242Z,21.33
2023-04-29T21:53:16.450Z,21.87
2023-04-29T21:55:43.225Z,21.47
2023-04-29T21:58:10.864Z,21.40
2023-04-29T22:00:39.064Z,21.40
2023-04-29T22:03:10.324Z,21.17
2023-04-29T22:05:37.280Z,22.87
2023-04-29T22:08:06.953Z,22.80
2023-04-29T22:10:33.567Z,23.40
2023-04-29T22:12:59.967Z,23.23
2023-04-29T22:15:28.802Z,23.07
2023-04-29T22:17:55.668Z,23.43
2023-04-29T22:20:22.149Z,22.93
2023-04-29T22:22:48.509Z,21.73
2023-04-29T22:25:14.936Z,23.47
2023-04-29T22:27:41.371Z,22.97
2023-04-29T22:30:08.387Z,22.27
2023-04-29T22:32:34.970Z,22.97
2023-04-29T22:35:01.448Z,22.50
2023-04-29T22:37:27.855Z,21.33
2023-04-29T22:39:54.508Z,23.53
2023-04-29T22:42:21.020Z,20.97
2023-04-29T22:44:47.359Z,21.70
2023-04-29T22:47:14.054Z,22.10
2023-04-29T22:49:41.018Z,21.93
2023-04-29T22:52:07.530Z,21.23
2023-04-29T22:54:33.947Z,20.27
2023-04-29T22:57:00.249Z,20.60
2023-04-29T22:59:26.617Z,20.57
2023-04-29T23:01:53.232Z,20.13
2023-04-29T23:04:20.350Z,20.13
2023-04-29T23:06:46.903Z,21.10
2023-04-29T23:09:13.305Z,19.33
2023-04-29T23:11:39.791Z,20.83
2023-04-29T23:14:06.187Z,21.17
2023-04-29T23:16:33.013Z,22.57
2023-04-29T23:18:59.517Z,19.80
2023-04-29T23:21:27.094Z,21.67
2023-04-29T23:23:54.169Z,21.87
2023-04-29T23:26:20.768Z,22.13
2023-04-29T23:28:47.114Z,20.50
2023-04-29T23:31:13.587Z,22.97
2023-04-29T23:33:39.887Z,21.87
2023-04-29T23:36:06.517Z,21.73
2023-04-29T23:38:32.980Z,22.03
2023-04-29T23:40:59.283Z,21.37
2023-04-29T23:43:25.784Z,21.40
2023-04-29T23:45:52.967Z,21.60
2023-04-29T23:48:19.362Z,21.33
2023-04-29T23:50:47.118Z,21.23
2023-04-29T23:53:13.566Z,20.77
2023-04-29T23:55:40.016Z,21.20
2023-04-29T23:58:07.511Z,19.47
